Main page
METAR-TAF:

METAR-TAF

Airports :

Piešťany Airport

Piešťany, Slovakia

latitude: 48-37-30N, longitude: 017-49-43E, elevation: 163 m

Current weather observation

The report was made 19 minutes ago, at 14:30 UTC
Wind 5 kt from the West, varying between Southwest and Northwest
Temperature 9°C
Humidity 40%
Pressure 1022 hPa
Visibility 10 km or more
no clouds below 1500 m and no cumulonimbus

METAR: LZPP 201430Z 27005KT 220V310 CAVOK 09/M04 Q1022

Time: 15:49 (14:49 UTC)

Forecast

The report was made 49 minutes ago, at 14:00 UTC
Forecast valid from 20 at 15 UTC to 21 at 00 UTC
Wind 4 kt from the Northwest
Visibility 10 km or more
no clouds below 1500 m and no cumulonimbus
Temporary
from 20 at 18 UTC to 21 at 00 UTC
Wind 4 kt from the South

TAF: LZPP 201400Z 2015/2100 32004KT CAVOK TEMPO 2018/2100 18004KT

Weather observations and forecasts of more than 4000 airports (METAR and TAF reports).

The available stations are represented by yellow and red dots on the map.

Hover mouse over dot to see the name of the station.

Then click to see weather observations and forecasts.

To change the map : click on the green buttons with a black cross to zoom in, on the green button with a dash to zoom out, or on the green arrows for adjacent maps.


METAR-TAF: